Tuesday, January 23, 2018, 7:24 AM EST
Back to Local

K12N, Aeroflex-andover Airport

Location: Newton, NJ, United States Lat: 41.017
Local Time: 7:24 AM EST (12:24 GMT) Lon: -74.733
Time Zone: US/Eastern Elev: 583 ft

Show me the last for .
Show Coded

Time T Td Feel RH Dir Speed Gust Alt SLP Vis Weather Sky Remarks
2018-01-23 05:54 42 42 - 100 - Calm - 29.77 29.79 0 1-hr Precip Total: 0.05"
2018-01-23 04:54 40 40 - 100 - Calm - 29.83 29.85 0 None
2018-01-23 03:54 41 41 - 100 - Calm - 29.88 29.89 0 None
2018-01-23 02:54 40 39 38 96 Variable 3 - 29.91 29.92 0 None
2018-01-23 01:54 39 38 37 95 Variable 3 - 29.94 29.95 0 None
2018-01-23 00:54 39 39 37 100 Variable 3 - 29.96 29.98 0 6-hr Min Temp (1am): 36.0°F
6-hr Max Temp (1am): 39.9°F
2018-01-22 23:54 38 37 - 96 - Calm - 30.01 30.02 0 24-hr Min Temp (12am): 34.0°F
24-hr Max Temp (12am): 48.9°F
2018-01-22 22:54 38 38 - 100 - Calm - 30.05 30.06 0 None
2018-01-22 21:54 40 39 - 96 - Calm - 30.04 30.06 0 None
2018-01-22 20:54 40 39 - 96 - Calm - 30.06 30.09 0 None
2018-01-22 19:54 38 37 - 96 - Calm - 30.09 30.12 0 None
2018-01-22 18:54 40 38 - 92 - Calm - 30.10 30.12 0 6-hr Min Temp (7pm): 37.9°F
6-hr Max Temp (7pm): 48.9°F
2018-01-22 17:54 39 37 37 92 Variable 3 - 30.10 30.13 0 None
2018-01-22 16:54 40 38 38 92 Variable 3 - 30.11 30.13 0 None
2018-01-22 15:54 44 39 42 82 30° 5 - 30.10 30.12 0 None
2018-01-22 14:54 48 39 - 70 - Calm - 30.09 30.10 0 None
2018-01-22 13:54 49 40 - 70 - Calm - 30.10 30.12 0 None
2018-01-22 12:54 46 40 45 79 Variable 3 - 30.12 30.14 0 6-hr Min Temp (1pm): 34.0°F
6-hr Max Temp (1pm): 46.0°F
2018-01-22 11:54 44 40 - 85 - Calm - 30.15 30.17 0 None
2018-01-22 10:54 41 39 - 92 - Calm - 30.17 30.19 0 None
2018-01-22 09:54 37 37 33 100 30° 5 - 30.18 30.20 0 None
2018-01-22 08:54 37 37 - 100 - Calm - 30.17 30.19 0 None
2018-01-22 07:54 35 35 32 100 Variable 3 - 30.16 30.18 0 None

Support USWX by starting your Amazon purchase here.